カラカス の空港の天気 - METARとTAF

シモン・ボリバー空港(バルガス) ( SVMI / CCS ) - ベネズエラ バルガス州、Maiquetia (カラカス近郊)
飛行場実況気象(Metar)
観測時間02/01 06:00 VET (02/01 10:00 UTC)
風向・風速東 3m/s
視程10km以上
天気現象
少しの雲 雲底高度 490m
全天の4割程度の雲 雲底高度 2440m
気温29℃
湿度55%
気圧1014hPa
METARSVMI 011000Z 09005KT 9999 FEW016 SCT080 29/19 Q1014
過去の天気等 Google飛行場航空写真 Wunderground天気予報

過去48時間のMETAR

飛行場予報(TAF)
発表時間: 2/01 00:00 VET (2/01 04:00 UTC)
予報対象時間: 1日2時 VET ~ 2日2時 VET
風向・風速静穏
視程10km以上
全天の4割程度の雲 雲底高度 490m
1日4時 VET ~ 1日6時 VET に徐々に
風向・風速静穏
視程10km以上
全天の4割程度の雲 雲底高度 400m
少しの雲 雲底高度 490m
TAF SVMI 010400Z 0106/0206 00000KT 9999 SCT016 TX32/0118Z TN21/0207Z
BECMG 0108/0110 00000KT 9999 SCT013 FEW016